sensor_id;sensor_type;location;lat;lon;timestamp;temperature;humidity
758;DHT22;363;48.764;9.172;2023-05-10T00:00:14;15.20;99.90
758;DHT22;363;48.764;9.172;2023-05-10T00:02:40;15.20;99.90
758;DHT22;363;48.764;9.172;2023-05-10T00:05:06;15.40;99.90
758;DHT22;363;48.764;9.172;2023-05-10T00:07:32;15.40;99.90
758;DHT22;363;48.764;9.172;2023-05-10T00:09:57;15.60;99.90
758;DHT22;363;48.764;9.172;2023-05-10T00:12:23;15.60;99.90
758;DHT22;363;48.764;9.172;2023-05-10T00:14:49;15.50;99.90
758;DHT22;363;48.764;9.172;2023-05-10T00:17:14;15.10;99.90
758;DHT22;363;48.764;9.172;2023-05-10T00:19:40;15.50;99.90
758;DHT22;363;48.764;9.172;2023-05-10T00:22:05;15.40;99.90
758;DHT22;363;48.764;9.172;2023-05-10T00:24:31;15.60;99.90
758;DHT22;363;48.764;9.172;2023-05-10T00:26:57;15.50;99.90
758;DHT22;363;48.764;9.172;2023-05-10T00:29:22;15.30;99.90
758;DHT22;363;48.764;9.172;2023-05-10T00:31:48;15.00;99.90
758;DHT22;363;48.764;9.172;2023-05-10T00:34:13;15.10;99.90
758;DHT22;363;48.764;9.172;2023-05-10T00:36:39;15.00;99.90
758;DHT22;363;48.764;9.172;2023-05-10T00:39:05;15.20;99.90
758;DHT22;363;48.764;9.172;2023-05-10T00:41:30;15.20;99.90
758;DHT22;363;48.764;9.172;2023-05-10T00:43:59;14.80;99.90
758;DHT22;363;48.764;9.172;2023-05-10T00:46:26;15.00;99.90
758;DHT22;363;48.764;9.172;2023-05-10T00:48:52;15.10;99.90
758;DHT22;363;48.764;9.172;2023-05-10T00:51:18;14.90;99.90
758;DHT22;363;48.764;9.172;2023-05-10T00:53:46;15.10;99.90
758;DHT22;363;48.764;9.172;2023-05-10T00:56:13;14.80;99.90
758;DHT22;363;48.764;9.172;2023-05-10T00:58:39;15.10;99.90
758;DHT22;363;48.764;9.172;2023-05-10T01:01:05;15.20;99.90
758;DHT22;363;48.764;9.172;2023-05-10T01:03:32;15.00;99.90
758;DHT22;363;48.764;9.172;2023-05-10T01:05:58;15.00;99.90
758;DHT22;363;48.764;9.172;2023-05-10T01:08:24;15.10;99.90
758;DHT22;363;48.764;9.172;2023-05-10T01:10:50;14.90;99.90
758;DHT22;363;48.764;9.172;2023-05-10T01:13:36;14.90;99.90
758;DHT22;363;48.764;9.172;2023-05-10T01:16:03;15.00;99.90
758;DHT22;363;48.764;9.172;2023-05-10T01:18:38;15.10;99.90
758;DHT22;363;48.764;9.172;2023-05-10T01:21:21;14.90;99.90
758;DHT22;363;48.764;9.172;2023-05-10T01:27:07;14.70;99.90
758;DHT22;363;48.764;9.172;2023-05-10T01:30:05;14.70;99.90
758;DHT22;363;48.764;9.172;2023-05-10T01:35:41;14.50;99.90
758;DHT22;363;48.764;9.172;2023-05-10T01:38:26;14.70;99.90
758;DHT22;363;48.764;9.172;2023-05-10T01:41:28;14.50;99.90
758;DHT22;363;48.764;9.172;2023-05-10T01:43:56;14.50;99.90
758;DHT22;363;48.764;9.172;2023-05-10T01:46:28;14.60;99.90
758;DHT22;363;48.764;9.172;2023-05-10T01:49:00;14.80;99.90
758;DHT22;363;48.764;9.172;2023-05-10T01:51:31;14.60;99.90
758;DHT22;363;48.764;9.172;2023-05-10T01:54:02;14.50;99.90
758;DHT22;363;48.764;9.172;2023-05-10T01:56:31;14.80;99.90
758;DHT22;363;48.764;9.172;2023-05-10T01:58:58;14.50;99.90
758;DHT22;363;48.764;9.172;2023-05-10T02:01:25;14.80;99.90
758;DHT22;363;48.764;9.172;2023-05-10T02:03:51;14.60;99.90
758;DHT22;363;48.764;9.172;2023-05-10T02:06:20;14.70;99.90
758;DHT22;363;48.764;9.172;2023-05-10T02:08:47;14.60;99.90
758;DHT22;363;48.764;9.172;2023-05-10T02:11:14;14.50;99.90
758;DHT22;363;48.764;9.172;2023-05-10T02:13:41;14.70;99.90
758;DHT22;363;48.764;9.172;2023-05-10T02:16:07;14.60;99.90
758;DHT22;363;48.764;9.172;2023-05-10T02:18:34;14.40;99.90
758;DHT22;363;48.764;9.172;2023-05-10T02:21:02;14.60;99.90
758;DHT22;363;48.764;9.172;2023-05-10T02:23:28;14.60;99.90
758;DHT22;363;48.764;9.172;2023-05-10T02:25:55;14.70;99.90
758;DHT22;363;48.764;9.172;2023-05-10T02:28:23;14.40;99.90
758;DHT22;363;48.764;9.172;2023-05-10T02:30:51;14.60;99.90
758;DHT22;363;48.764;9.172;2023-05-10T02:33:18;14.30;99.90
758;DHT22;363;48.764;9.172;2023-05-10T02:35:46;14.10;99.90
758;DHT22;363;48.764;9.172;2023-05-10T02:38:13;14.10;99.90
758;DHT22;363;48.764;9.172;2023-05-10T02:40:40;14.80;99.90
758;DHT22;363;48.764;9.172;2023-05-10T02:43:12;14.30;99.90
758;DHT22;363;48.764;9.172;2023-05-10T02:45:38;14.40;99.90
758;DHT22;363;48.764;9.172;2023-05-10T02:48:05;14.60;99.90
758;DHT22;363;48.764;9.172;2023-05-10T02:50:33;14.50;99.90
758;DHT22;363;48.764;9.172;2023-05-10T02:53:09;14.40;99.90
758;DHT22;363;48.764;9.172;2023-05-10T02:55:38;14.40;99.90
758;DHT22;363;48.764;9.172;2023-05-10T02:58:05;14.20;99.90
758;DHT22;363;48.764;9.172;2023-05-10T03:00:31;14.10;99.90
758;DHT22;363;48.764;9.172;2023-05-10T03:02:56;14.20;99.90
758;DHT22;363;48.764;9.172;2023-05-10T03:05:22;14.30;99.90
758;DHT22;363;48.764;9.172;2023-05-10T03:07:48;13.90;99.90
758;DHT22;363;48.764;9.172;2023-05-10T03:10:14;14.10;99.90
758;DHT22;363;48.764;9.172;2023-05-10T03:18:18;14.10;99.90
758;DHT22;363;48.764;9.172;2023-05-10T03:20:48;14.10;99.90
758;DHT22;363;48.764;9.172;2023-05-10T03:25:44;14.10;99.90
758;DHT22;363;48.764;9.172;2023-05-10T03:28:12;14.20;99.90
758;DHT22;363;48.764;9.172;2023-05-10T03:30:41;14.20;99.90
758;DHT22;363;48.764;9.172;2023-05-10T03:33:07;14.40;99.90
758;DHT22;363;48.764;9.172;2023-05-10T03:35:32;14.30;99.90
758;DHT22;363;48.764;9.172;2023-05-10T03:37:58;14.10;99.90
758;DHT22;363;48.764;9.172;2023-05-10T03:40:24;13.60;99.90
758;DHT22;363;48.764;9.172;2023-05-10T03:42:50;13.80;99.90
758;DHT22;363;48.764;9.172;2023-05-10T03:45:16;14.00;99.90
758;DHT22;363;48.764;9.172;2023-05-10T03:47:42;14.10;99.90
758;DHT22;363;48.764;9.172;2023-05-10T03:50:07;14.10;99.90
758;DHT22;363;48.764;9.172;2023-05-10T03:52:33;14.40;99.90
758;DHT22;363;48.764;9.172;2023-05-10T03:54:59;14.00;99.90
758;DHT22;363;48.764;9.172;2023-05-10T03:57:24;14.00;99.90
758;DHT22;363;48.764;9.172;2023-05-10T03:59:50;14.20;99.90
758;DHT22;363;48.764;9.172;2023-05-10T04:02:15;14.00;99.90
758;DHT22;363;48.764;9.172;2023-05-10T04:04:41;14.20;99.90
758;DHT22;363;48.764;9.172;2023-05-10T04:07:07;14.10;99.90
758;DHT22;363;48.764;9.172;2023-05-10T04:09:32;14.30;99.90
758;DHT22;363;48.764;9.172;2023-05-10T04:11:59;13.90;99.90
758;DHT22;363;48.764;9.172;2023-05-10T04:14:25;14.20;99.90
758;DHT22;363;48.764;9.172;2023-05-10T04:16:50;14.20;99.90
758;DHT22;363;48.764;9.172;2023-05-10T04:19:16;14.30;99.90
758;DHT22;363;48.764;9.172;2023-05-10T04:21:42;14.60;99.90
758;DHT22;363;48.764;9.172;2023-05-10T04:24:07;14.00;99.90
758;DHT22;363;48.764;9.172;2023-05-10T04:26:33;14.10;99.90
758;DHT22;363;48.764;9.172;2023-05-10T04:28:58;14.00;99.90
758;DHT22;363;48.764;9.172;2023-05-10T04:31:24;13.90;99.90
758;DHT22;363;48.764;9.172;2023-05-10T04:33:50;14.10;99.90
758;DHT22;363;48.764;9.172;2023-05-10T04:36:15;13.80;99.90
758;DHT22;363;48.764;9.172;2023-05-10T04:38:41;13.80;99.90
758;DHT22;363;48.764;9.172;2023-05-10T04:41:08;14.10;99.90
758;DHT22;363;48.764;9.172;2023-05-10T04:43:35;13.90;99.90
758;DHT22;363;48.764;9.172;2023-05-10T04:46:01;14.00;99.90
758;DHT22;363;48.764;9.172;2023-05-10T04:48:27;14.00;99.90
758;DHT22;363;48.764;9.172;2023-05-10T04:50:52;14.10;99.90
758;DHT22;363;48.764;9.172;2023-05-10T04:53:18;14.20;99.90
758;DHT22;363;48.764;9.172;2023-05-10T04:55:44;14.30;99.90
758;DHT22;363;48.764;9.172;2023-05-10T04:58:09;14.20;99.90
758;DHT22;363;48.764;9.172;2023-05-10T05:00:35;14.30;99.90
758;DHT22;363;48.764;9.172;2023-05-10T05:03:00;14.30;99.90
758;DHT22;363;48.764;9.172;2023-05-10T05:05:26;14.50;99.90
758;DHT22;363;48.764;9.172;2023-05-10T05:07:52;14.70;99.90
758;DHT22;363;48.764;9.172;2023-05-10T05:10:17;14.50;99.90
758;DHT22;363;48.764;9.172;2023-05-10T05:12:43;14.70;99.90
758;DHT22;363;48.764;9.172;2023-05-10T05:15:09;14.60;99.90
758;DHT22;363;48.764;9.172;2023-05-10T05:17:35;14.80;99.90
758;DHT22;363;48.764;9.172;2023-05-10T05:20:01;15.00;99.90
758;DHT22;363;48.764;9.172;2023-05-10T05:22:26;15.00;99.90
758;DHT22;363;48.764;9.172;2023-05-10T05:24:57;15.20;99.90
758;DHT22;363;48.764;9.172;2023-05-10T05:27:24;15.00;99.90
758;DHT22;363;48.764;9.172;2023-05-10T05:29:54;15.10;99.90
758;DHT22;363;48.764;9.172;2023-05-10T05:32:21;15.00;99.90
758;DHT22;363;48.764;9.172;2023-05-10T05:34:47;15.20;99.90
758;DHT22;363;48.764;9.172;2023-05-10T05:37:14;15.30;99.90
758;DHT22;363;48.764;9.172;2023-05-10T05:39:40;15.50;99.90
758;DHT22;363;48.764;9.172;2023-05-10T05:42:05;15.20;99.90
758;DHT22;363;48.764;9.172;2023-05-10T05:44:31;15.10;99.90
758;DHT22;363;48.764;9.172;2023-05-10T05:46:56;15.60;99.90
758;DHT22;363;48.764;9.172;2023-05-10T05:49:22;15.30;99.90
758;DHT22;363;48.764;9.172;2023-05-10T05:51:48;15.40;99.90
758;DHT22;363;48.764;9.172;2023-05-10T05:54:15;15.30;99.90
758;DHT22;363;48.764;9.172;2023-05-10T05:56:41;15.30;99.90
758;DHT22;363;48.764;9.172;2023-05-10T05:59:07;15.60;99.90
758;DHT22;363;48.764;9.172;2023-05-10T06:01:33;15.50;99.90
758;DHT22;363;48.764;9.172;2023-05-10T06:03:58;15.30;99.90
758;DHT22;363;48.764;9.172;2023-05-10T06:06:24;15.40;99.90
758;DHT22;363;48.764;9.172;2023-05-10T06:08:50;15.60;99.90
758;DHT22;363;48.764;9.172;2023-05-10T06:11:15;15.30;99.90
758;DHT22;363;48.764;9.172;2023-05-10T06:13:41;15.30;99.90
758;DHT22;363;48.764;9.172;2023-05-10T06:16:07;15.50;99.90
758;DHT22;363;48.764;9.172;2023-05-10T06:18:33;15.60;99.90
758;DHT22;363;48.764;9.172;2023-05-10T06:20:59;15.60;99.90
758;DHT22;363;48.764;9.172;2023-05-10T06:23:25;15.50;99.90
758;DHT22;363;48.764;9.172;2023-05-10T06:25:51;15.50;99.90
758;DHT22;363;48.764;9.172;2023-05-10T06:28:16;15.40;99.90
758;DHT22;363;48.764;9.172;2023-05-10T06:30:42;15.60;99.90
758;DHT22;363;48.764;9.172;2023-05-10T06:33:08;15.90;99.90
758;DHT22;363;48.764;9.172;2023-05-10T06:35:34;15.80;99.90
758;DHT22;363;48.764;9.172;2023-05-10T06:37:59;15.70;99.90
758;DHT22;363;48.764;9.172;2023-05-10T06:40:25;16.00;99.90
758;DHT22;363;48.764;9.172;2023-05-10T06:42:51;16.10;99.90
758;DHT22;363;48.764;9.172;2023-05-10T06:45:17;15.60;99.90
758;DHT22;363;48.764;9.172;2023-05-10T06:47:42;15.90;99.90
758;DHT22;363;48.764;9.172;2023-05-10T06:50:08;16.00;99.90
758;DHT22;363;48.764;9.172;2023-05-10T06:52:34;15.60;99.90
758;DHT22;363;48.764;9.172;2023-05-10T06:55:00;15.30;99.90
758;DHT22;363;48.764;9.172;2023-05-10T06:57:26;15.60;99.90
758;DHT22;363;48.764;9.172;2023-05-10T06:59:51;15.90;99.90
758;DHT22;363;48.764;9.172;2023-05-10T07:02:18;15.60;99.90
758;DHT22;363;48.764;9.172;2023-05-10T07:04:43;15.00;99.90
758;DHT22;363;48.764;9.172;2023-05-10T07:07:09;15.30;99.90
758;DHT22;363;48.764;9.172;2023-05-10T07:09:35;15.40;99.90
758;DHT22;363;48.764;9.172;2023-05-10T07:12:00;16.10;99.90
758;DHT22;363;48.764;9.172;2023-05-10T07:14:27;15.80;99.90
758;DHT22;363;48.764;9.172;2023-05-10T07:16:52;15.80;99.90
758;DHT22;363;48.764;9.172;2023-05-10T07:19:18;16.70;99.90
758;DHT22;363;48.764;9.172;2023-05-10T07:21:43;16.10;99.90
758;DHT22;363;48.764;9.172;2023-05-10T07:24:09;16.60;99.90
758;DHT22;363;48.764;9.172;2023-05-10T07:26:34;17.00;99.90
758;DHT22;363;48.764;9.172;2023-05-10T07:29:00;17.50;99.90
758;DHT22;363;48.764;9.172;2023-05-10T07:31:26;17.40;99.90
758;DHT22;363;48.764;9.172;2023-05-10T07:33:52;17.40;99.90
758;DHT22;363;48.764;9.172;2023-05-10T07:36:17;17.80;99.90
758;DHT22;363;48.764;9.172;2023-05-10T07:38:43;18.10;99.90
758;DHT22;363;48.764;9.172;2023-05-10T07:41:10;18.00;99.90
758;DHT22;363;48.764;9.172;2023-05-10T07:43:36;17.80;99.90
758;DHT22;363;48.764;9.172;2023-05-10T07:46:01;18.00;99.90
758;DHT22;363;48.764;9.172;2023-05-10T07:48:27;17.70;99.90
758;DHT22;363;48.764;9.172;2023-05-10T07:50:55;18.30;99.90
758;DHT22;363;48.764;9.172;2023-05-10T07:53:21;18.20;99.90
758;DHT22;363;48.764;9.172;2023-05-10T07:55:51;18.20;99.90
758;DHT22;363;48.764;9.172;2023-05-10T07:58:17;17.90;99.90
758;DHT22;363;48.764;9.172;2023-05-10T08:00:42;18.10;99.90
758;DHT22;363;48.764;9.172;2023-05-10T08:03:08;18.00;99.90
758;DHT22;363;48.764;9.172;2023-05-10T08:05:33;17.90;99.90
758;DHT22;363;48.764;9.172;2023-05-10T08:07:59;17.60;99.90
758;DHT22;363;48.764;9.172;2023-05-10T08:10:25;17.80;99.90
758;DHT22;363;48.764;9.172;2023-05-10T08:12:50;17.70;99.90
758;DHT22;363;48.764;9.172;2023-05-10T08:15:16;17.70;99.90
758;DHT22;363;48.764;9.172;2023-05-10T08:17:42;17.70;99.90
758;DHT22;363;48.764;9.172;2023-05-10T08:20:08;17.70;99.90
758;DHT22;363;48.764;9.172;2023-05-10T08:22:34;17.70;99.90
758;DHT22;363;48.764;9.172;2023-05-10T08:24:59;17.50;99.90
758;DHT22;363;48.764;9.172;2023-05-10T08:27:25;17.50;99.90
758;DHT22;363;48.764;9.172;2023-05-10T08:29:50;17.70;99.90
758;DHT22;363;48.764;9.172;2023-05-10T08:32:16;18.20;99.90
758;DHT22;363;48.764;9.172;2023-05-10T08:34:42;17.80;99.90
758;DHT22;363;48.764;9.172;2023-05-10T08:37:07;18.10;99.90
758;DHT22;363;48.764;9.172;2023-05-10T08:39:36;18.00;99.90
758;DHT22;363;48.764;9.172;2023-05-10T08:42:04;18.20;99.90
758;DHT22;363;48.764;9.172;2023-05-10T08:44:32;18.10;99.90
758;DHT22;363;48.764;9.172;2023-05-10T08:46:59;17.70;99.90
758;DHT22;363;48.764;9.172;2023-05-10T08:49:27;18.20;99.90
758;DHT22;363;48.764;9.172;2023-05-10T08:51:57;17.80;99.90
758;DHT22;363;48.764;9.172;2023-05-10T08:54:25;18.20;99.90
758;DHT22;363;48.764;9.172;2023-05-10T08:56:50;17.60;99.90
758;DHT22;363;48.764;9.172;2023-05-10T08:59:17;18.10;99.90
758;DHT22;363;48.764;9.172;2023-05-10T09:01:44;17.80;99.90
758;DHT22;363;48.764;9.172;2023-05-10T09:04:10;18.50;99.90
758;DHT22;363;48.764;9.172;2023-05-10T09:06:37;18.50;99.90
758;DHT22;363;48.764;9.172;2023-05-10T09:09:03;18.70;99.90
758;DHT22;363;48.764;9.172;2023-05-10T09:11:28;18.90;99.90
758;DHT22;363;48.764;9.172;2023-05-10T09:13:55;18.80;99.90
758;DHT22;363;48.764;9.172;2023-05-10T09:16:22;19.10;99.90
758;DHT22;363;48.764;9.172;2023-05-10T09:18:47;19.00;99.90
758;DHT22;363;48.764;9.172;2023-05-10T09:21:14;18.70;99.90
758;DHT22;363;48.764;9.172;2023-05-10T09:23:43;18.80;99.90
758;DHT22;363;48.764;9.172;2023-05-10T09:26:08;18.40;99.90
758;DHT22;363;48.764;9.172;2023-05-10T09:28:49;18.00;99.90
758;DHT22;363;48.764;9.172;2023-05-10T09:31:15;17.60;99.90
758;DHT22;363;48.764;9.172;2023-05-10T09:33:44;18.00;99.90
758;DHT22;363;48.764;9.172;2023-05-10T09:36:11;17.40;99.90
758;DHT22;363;48.764;9.172;2023-05-10T09:38:50;17.30;99.90
758;DHT22;363;48.764;9.172;2023-05-10T09:41:21;16.90;99.90
758;DHT22;363;48.764;9.172;2023-05-10T09:43:47;17.90;99.90
758;DHT22;363;48.764;9.172;2023-05-10T09:46:15;17.80;99.90
758;DHT22;363;48.764;9.172;2023-05-10T09:48:43;17.80;99.90
758;DHT22;363;48.764;9.172;2023-05-10T09:51:09;18.20;99.90
758;DHT22;363;48.764;9.172;2023-05-10T09:53:34;18.50;99.90
758;DHT22;363;48.764;9.172;2023-05-10T09:56:00;19.00;99.90
758;DHT22;363;48.764;9.172;2023-05-10T09:58:25;19.00;99.90
758;DHT22;363;48.764;9.172;2023-05-10T10:00:52;19.30;99.60
758;DHT22;363;48.764;9.172;2023-05-10T10:03:20;20.00;97.90
758;DHT22;363;48.764;9.172;2023-05-10T10:05:47;20.00;97.50
758;DHT22;363;48.764;9.172;2023-05-10T10:08:14;19.90;96.50
758;DHT22;363;48.764;9.172;2023-05-10T10:10:41;19.90;96.40
758;DHT22;363;48.764;9.172;2023-05-10T10:13:08;20.60;95.40
758;DHT22;363;48.764;9.172;2023-05-10T10:15:34;20.40;95.20
758;DHT22;363;48.764;9.172;2023-05-10T10:18:01;21.10;94.80
758;DHT22;363;48.764;9.172;2023-05-10T10:20:27;21.40;93.50
758;DHT22;363;48.764;9.172;2023-05-10T10:22:54;21.40;94.10
758;DHT22;363;48.764;9.172;2023-05-10T10:25:21;20.80;93.70
758;DHT22;363;48.764;9.172;2023-05-10T10:33:36;21.00;92.90
758;DHT22;363;48.764;9.172;2023-05-10T10:36:04;20.80;93.20
758;DHT22;363;48.764;9.172;2023-05-10T10:41:11;20.50;94.70
758;DHT22;363;48.764;9.172;2023-05-10T10:46:59;19.40;93.80
758;DHT22;363;48.764;9.172;2023-05-10T10:49:26;19.80;94.30
758;DHT22;363;48.764;9.172;2023-05-10T10:52:27;19.90;94.50
758;DHT22;363;48.764;9.172;2023-05-10T10:55:15;19.60;94.50
758;DHT22;363;48.764;9.172;2023-05-10T11:00:25;18.40;95.20
758;DHT22;363;48.764;9.172;2023-05-10T11:08:09;17.40;96.10
758;DHT22;363;48.764;9.172;2023-05-10T11:10:35;17.40;95.30
758;DHT22;363;48.764;9.172;2023-05-10T11:17:56;17.60;95.90
758;DHT22;363;48.764;9.172;2023-05-10T11:20:22;16.90;96.20
758;DHT22;363;48.764;9.172;2023-05-10T11:22:53;17.00;96.70
758;DHT22;363;48.764;9.172;2023-05-10T11:25:19;17.20;96.80
758;DHT22;363;48.764;9.172;2023-05-10T11:27:47;17.50;96.70
758;DHT22;363;48.764;9.172;2023-05-10T11:30:14;17.60;96.70
758;DHT22;363;48.764;9.172;2023-05-10T11:32:40;17.40;96.30
758;DHT22;363;48.764;9.172;2023-05-10T11:35:10;17.60;96.10
758;DHT22;363;48.764;9.172;2023-05-10T11:37:36;18.30;95.80
758;DHT22;363;48.764;9.172;2023-05-10T11:40:02;18.50;94.80
758;DHT22;363;48.764;9.172;2023-05-10T11:42:28;17.80;94.50
758;DHT22;363;48.764;9.172;2023-05-10T11:44:54;17.80;94.00
758;DHT22;363;48.764;9.172;2023-05-10T11:47:20;18.00;94.70
758;DHT22;363;48.764;9.172;2023-05-10T11:49:46;17.50;94.60
758;DHT22;363;48.764;9.172;2023-05-10T11:52:12;18.20;95.10
758;DHT22;363;48.764;9.172;2023-05-10T11:54:37;17.60;95.70
758;DHT22;363;48.764;9.172;2023-05-10T11:57:03;17.40;95.70
758;DHT22;363;48.764;9.172;2023-05-10T11:59:29;17.70;96.30
758;DHT22;363;48.764;9.172;2023-05-10T12:01:55;18.10;96.80
758;DHT22;363;48.764;9.172;2023-05-10T12:04:22;18.10;96.90
758;DHT22;363;48.764;9.172;2023-05-10T12:06:49;18.10;97.10
758;DHT22;363;48.764;9.172;2023-05-10T12:09:14;17.90;96.50
758;DHT22;363;48.764;9.172;2023-05-10T12:11:40;17.70;95.90
758;DHT22;363;48.764;9.172;2023-05-10T12:14:07;17.20;96.60
758;DHT22;363;48.764;9.172;2023-05-10T12:16:35;17.90;96.90
758;DHT22;363;48.764;9.172;2023-05-10T12:19:00;17.90;96.10
758;DHT22;363;48.764;9.172;2023-05-10T12:21:28;18.10;96.10
758;DHT22;363;48.764;9.172;2023-05-10T12:23:58;18.00;95.80
758;DHT22;363;48.764;9.172;2023-05-10T12:26:24;18.30;95.60
758;DHT22;363;48.764;9.172;2023-05-10T12:28:52;18.70;95.80
758;DHT22;363;48.764;9.172;2023-05-10T12:31:18;18.60;95.70
758;DHT22;363;48.764;9.172;2023-05-10T12:33:44;18.70;95.60
758;DHT22;363;48.764;9.172;2023-05-10T12:36:12;18.50;94.00
758;DHT22;363;48.764;9.172;2023-05-10T12:41:15;18.70;94.10
758;DHT22;363;48.764;9.172;2023-05-10T12:43:41;18.50;94.20
758;DHT22;363;48.764;9.172;2023-05-10T12:46:16;18.60;94.10
758;DHT22;363;48.764;9.172;2023-05-10T12:48:43;18.20;93.40
758;DHT22;363;48.764;9.172;2023-05-10T12:51:09;18.50;94.00
758;DHT22;363;48.764;9.172;2023-05-10T12:53:37;18.40;93.60
758;DHT22;363;48.764;9.172;2023-05-10T12:56:04;18.50;93.60
758;DHT22;363;48.764;9.172;2023-05-10T12:58:30;18.40;93.70
758;DHT22;363;48.764;9.172;2023-05-10T13:00:57;18.30;94.50
758;DHT22;363;48.764;9.172;2023-05-10T13:03:23;18.20;94.00
758;DHT22;363;48.764;9.172;2023-05-10T13:05:48;18.00;94.00
758;DHT22;363;48.764;9.172;2023-05-10T13:08:14;17.70;94.60
758;DHT22;363;48.764;9.172;2023-05-10T13:10:40;17.40;95.00
758;DHT22;363;48.764;9.172;2023-05-10T13:13:06;17.30;95.00
758;DHT22;363;48.764;9.172;2023-05-10T13:15:32;17.50;95.20
758;DHT22;363;48.764;9.172;2023-05-10T13:17:58;17.40;94.90
758;DHT22;363;48.764;9.172;2023-05-10T13:20:25;17.50;95.00
758;DHT22;363;48.764;9.172;2023-05-10T13:22:50;17.90;95.50
758;DHT22;363;48.764;9.172;2023-05-10T13:25:16;18.00;94.50
758;DHT22;363;48.764;9.172;2023-05-10T13:27:42;18.30;94.00
758;DHT22;363;48.764;9.172;2023-05-10T13:30:08;18.40;93.40
758;DHT22;363;48.764;9.172;2023-05-10T13:32:35;18.50;93.50
758;DHT22;363;48.764;9.172;2023-05-10T13:35:01;18.60;92.90
758;DHT22;363;48.764;9.172;2023-05-10T13:37:29;18.60;92.80
758;DHT22;363;48.764;9.172;2023-05-10T13:39:55;18.80;92.60
758;DHT22;363;48.764;9.172;2023-05-10T13:42:22;19.00;92.80
758;DHT22;363;48.764;9.172;2023-05-10T13:44:48;19.20;92.30
758;DHT22;363;48.764;9.172;2023-05-10T13:47:13;18.70;92.00
758;DHT22;363;48.764;9.172;2023-05-10T13:49:39;18.60;92.30
758;DHT22;363;48.764;9.172;2023-05-10T13:52:05;18.40;92.00
758;DHT22;363;48.764;9.172;2023-05-10T13:54:33;18.40;92.30
758;DHT22;363;48.764;9.172;2023-05-10T13:56:59;18.40;93.00
758;DHT22;363;48.764;9.172;2023-05-10T13:59:25;18.40;93.80
758;DHT22;363;48.764;9.172;2023-05-10T14:01:50;18.60;92.60
758;DHT22;363;48.764;9.172;2023-05-10T14:04:16;18.50;91.70
758;DHT22;363;48.764;9.172;2023-05-10T14:06:42;18.60;92.30
758;DHT22;363;48.764;9.172;2023-05-10T14:09:07;18.80;91.10
758;DHT22;363;48.764;9.172;2023-05-10T14:11:33;18.90;90.10
758;DHT22;363;48.764;9.172;2023-05-10T14:13:58;19.00;89.80
758;DHT22;363;48.764;9.172;2023-05-10T14:16:24;18.90;88.50
758;DHT22;363;48.764;9.172;2023-05-10T14:18:49;18.90;89.80
758;DHT22;363;48.764;9.172;2023-05-10T14:21:15;18.70;89.80
758;DHT22;363;48.764;9.172;2023-05-10T14:23:41;18.80;90.10
758;DHT22;363;48.764;9.172;2023-05-10T14:26:06;18.90;89.60
758;DHT22;363;48.764;9.172;2023-05-10T14:28:32;18.70;89.00
758;DHT22;363;48.764;9.172;2023-05-10T14:30:58;18.70;89.60
758;DHT22;363;48.764;9.172;2023-05-10T14:33:24;18.90;90.00
758;DHT22;363;48.764;9.172;2023-05-10T14:35:50;19.70;90.10
758;DHT22;363;48.764;9.172;2023-05-10T14:38:16;19.20;89.10
758;DHT22;363;48.764;9.172;2023-05-10T14:40:41;19.30;88.90
758;DHT22;363;48.764;9.172;2023-05-10T14:43:08;19.10;87.80
758;DHT22;363;48.764;9.172;2023-05-10T14:45:33;19.00;87.70
758;DHT22;363;48.764;9.172;2023-05-10T14:48:00;19.10;87.50
758;DHT22;363;48.764;9.172;2023-05-10T14:50:30;19.20;87.50
758;DHT22;363;48.764;9.172;2023-05-10T14:52:55;19.30;88.00
758;DHT22;363;48.764;9.172;2023-05-10T14:55:21;19.40;87.30
758;DHT22;363;48.764;9.172;2023-05-10T14:57:46;19.40;87.50
758;DHT22;363;48.764;9.172;2023-05-10T15:00:15;19.10;86.70
758;DHT22;363;48.764;9.172;2023-05-10T15:02:41;19.00;88.40
758;DHT22;363;48.764;9.172;2023-05-10T15:05:07;19.00;87.60
758;DHT22;363;48.764;9.172;2023-05-10T15:07:33;19.00;87.50
758;DHT22;363;48.764;9.172;2023-05-10T15:09:58;19.10;89.20
758;DHT22;363;48.764;9.172;2023-05-10T15:12:24;19.30;87.80
758;DHT22;363;48.764;9.172;2023-05-10T15:14:49;18.90;87.70
758;DHT22;363;48.764;9.172;2023-05-10T15:17:15;18.80;88.80
758;DHT22;363;48.764;9.172;2023-05-10T15:19:41;19.00;89.30
758;DHT22;363;48.764;9.172;2023-05-10T15:22:07;18.70;88.70
758;DHT22;363;48.764;9.172;2023-05-10T15:24:33;18.80;90.00
758;DHT22;363;48.764;9.172;2023-05-10T15:26:58;18.60;90.10
758;DHT22;363;48.764;9.172;2023-05-10T15:29:24;18.80;90.30
758;DHT22;363;48.764;9.172;2023-05-10T15:31:50;18.90;90.20
758;DHT22;363;48.764;9.172;2023-05-10T15:34:17;19.30;90.20
758;DHT22;363;48.764;9.172;2023-05-10T15:36:43;18.90;89.70
758;DHT22;363;48.764;9.172;2023-05-10T15:39:09;18.90;90.10
758;DHT22;363;48.764;9.172;2023-05-10T15:41:35;18.90;90.20
758;DHT22;363;48.764;9.172;2023-05-10T15:44:00;19.00;90.00
758;DHT22;363;48.764;9.172;2023-05-10T15:46:27;18.80;90.10
758;DHT22;363;48.764;9.172;2023-05-10T15:48:53;18.90;90.00
758;DHT22;363;48.764;9.172;2023-05-10T15:51:18;18.80;90.20
758;DHT22;363;48.764;9.172;2023-05-10T15:53:44;19.20;89.60
758;DHT22;363;48.764;9.172;2023-05-10T15:56:10;18.90;87.20
758;DHT22;363;48.764;9.172;2023-05-10T15:58:36;19.10;88.20
758;DHT22;363;48.764;9.172;2023-05-10T16:01:03;18.90;88.60
758;DHT22;363;48.764;9.172;2023-05-10T16:03:30;18.80;86.80
758;DHT22;363;48.764;9.172;2023-05-10T16:05:55;18.70;86.30
758;DHT22;363;48.764;9.172;2023-05-10T16:08:21;18.90;86.70
758;DHT22;363;48.764;9.172;2023-05-10T16:10:47;18.70;86.50
758;DHT22;363;48.764;9.172;2023-05-10T16:13:13;18.70;86.70
758;DHT22;363;48.764;9.172;2023-05-10T16:15:40;18.60;86.80
758;DHT22;363;48.764;9.172;2023-05-10T16:18:06;18.60;86.10
758;DHT22;363;48.764;9.172;2023-05-10T16:20:32;18.70;87.10
758;DHT22;363;48.764;9.172;2023-05-10T16:23:02;18.60;86.90
758;DHT22;363;48.764;9.172;2023-05-10T16:25:28;18.60;86.90
758;DHT22;363;48.764;9.172;2023-05-10T16:27:54;18.60;85.80
758;DHT22;363;48.764;9.172;2023-05-10T16:30:19;18.80;86.60
758;DHT22;363;48.764;9.172;2023-05-10T16:32:45;18.40;86.00
758;DHT22;363;48.764;9.172;2023-05-10T16:35:11;18.20;87.30
758;DHT22;363;48.764;9.172;2023-05-10T16:37:37;18.30;88.00
758;DHT22;363;48.764;9.172;2023-05-10T16:40:03;18.50;87.70
758;DHT22;363;48.764;9.172;2023-05-10T16:42:29;18.70;86.70
758;DHT22;363;48.764;9.172;2023-05-10T16:44:54;18.30;87.60
758;DHT22;363;48.764;9.172;2023-05-10T16:47:20;18.30;87.60
758;DHT22;363;48.764;9.172;2023-05-10T16:49:45;18.30;87.40
758;DHT22;363;48.764;9.172;2023-05-10T16:52:11;18.30;88.10
758;DHT22;363;48.764;9.172;2023-05-10T16:54:37;18.10;88.00
758;DHT22;363;48.764;9.172;2023-05-10T16:57:02;17.90;88.30
758;DHT22;363;48.764;9.172;2023-05-10T16:59:28;18.00;89.40
758;DHT22;363;48.764;9.172;2023-05-10T17:01:53;18.10;89.60
758;DHT22;363;48.764;9.172;2023-05-10T17:04:19;18.10;90.20
758;DHT22;363;48.764;9.172;2023-05-10T17:06:45;18.00;90.10
758;DHT22;363;48.764;9.172;2023-05-10T17:09:11;17.90;89.90
758;DHT22;363;48.764;9.172;2023-05-10T17:11:36;18.00;90.10